Aegean Princess — ZDID9 — position and weather

sailwx.info

Track history (hours):
 
Tides and Currents Weather Stations Pressure Air Temp Water Temp Dewpoint Dewpoint Depression Visibility Wind Speed Wind Dir Waves Ship Positions

Aegean Princess

Last reported at 2015-Jul-19 14:33 UTC. Time now 2015-Jul-29 22:02 UTC.
Position N 36°08' W 005°18'.
Warning: this ship's position is 10 days out of date.

Length 100 m; draft 7.1 m.

Type: Ship. MMSI: 236111476.

Date/timePositionNaut miles runAvg speedWind from/ knotsBaromVisibWave heightAir tempDewpointWater temp
2015-Jul-19 14:33N 36°08' W 005°18'  
2015-Jul-14 08:12N 36°08' W 005°23'0 0.1
2015-Jul-14 07:21N 36°08' W 005°23'0 0.0
2015-Jul-14 05:24N 36°08' W 005°23'0 0.0
2015-Jul-14 04:18N 36°08' W 005°23'0 0.0
2015-Jul-14 03:18N 36°08' W 005°23'0 0.0
2015-Jul-14 02:33N 36°08' W 005°23'0 0.0
2015-Jul-13 21:12N 36°08' W 005°23'1 2.0
2015-Jul-13 20:33N 36°09' W 005°22'0 0.1
2015-Jul-13 18:21N 36°09' W 005°22'0 0.0
2015-Jul-13 17:33N 36°09' W 005°22'0 0.0
2015-Jul-13 16:30N 36°09' W 005°22'0 0.0
2015-Jul-13 15:33N 36°09' W 005°22'0 0.0
2015-Jul-13 14:33N 36°09' W 005°22'1 0.5
2015-Jul-13 13:33N 36°09' W 005°23'4 3.8
2015-Jul-13 12:33N 36°08' W 005°18'0 0.0
2015-Jul-13 09:28N 36°07' W 005°18'5 5.5
2015-Jul-13 08:33N 36°03' W 005°22'9 9.3
2015-Jul-13 07:33N 35°56' W 005°29'2 0.1
2015-Jul-12 18:26N 35°57' W 005°31'5 5.5
2015-Jul-12 17:33N 35°60' W 005°26'7 6.7
2015-Jul-12 16:34N 36°06' W 005°23'3 2.8
2015-Jul-12 15:23N 36°09' W 005°22'0 0.0
2015-Jul-12 14:23N 36°09' W 005°22'0 0.3
2015-Jul-12 13:33N 36°09' W 005°23'2 1.6
2015-Jul-12 12:33N 36°07' W 005°22'0 0.0
2015-Jul-12 11:33N 36°07' W 005°22'0 0.0
2015-Jul-12 10:33N 36°07' W 005°22'0 0.0
2015-Jul-12 09:24N 36°07' W 005°22'0 0.2
2015-Jul-12 08:33N 36°08' W 005°22'0 0.1
2015-Jul-12 07:33N 36°08' W 005°22'0 0.1
2015-Jul-12 06:33N 36°08' W 005°22'0 0.1
2015-Jul-12 05:33N 36°07' W 005°22'2 1.9
2015-Jul-12 04:32N 36°09' W 005°23'0 0.0
2015-Jul-11 22:25N 36°09' W 005°23'0 0.0
2015-Jul-11 20:31N 36°09' W 005°23'0 0.0
2015-Jul-11 19:31N 36°09' W 005°23'0 0.0
2015-Jul-11 18:31N 36°09' W 005°23'0 0.0
2015-Jul-11 17:31N 36°09' W 005°23'0 0.0
2015-Jul-11 16:31N 36°09' W 005°23'0 0.0
2015-Jul-11 15:31N 36°09' W 005°23'0 0.0
2015-Jul-11 14:31N 36°09' W 005°23'0 0.0
2015-Jul-11 13:31N 36°09' W 005°23'0 0.0
2015-Jul-11 12:31N 36°09' W 005°23'0 0.0
2015-Jul-11 11:31N 36°09' W 005°23'0 0.0
2015-Jul-11 10:31N 36°09' W 005°23'1 0.4
2015-Jul-11 07:29N 36°08' W 005°22'1 0.9
2015-Jul-11 06:32N 36°08' W 005°22'0 0.1
2015-Jul-11 05:26N 36°08' W 005°22'0 0.2
2015-Jul-11 04:32N 36°07' W 005°22'0 0.1
2015-Jul-11 03:26N 36°07' W 005°22'0 0.0
2015-Jul-11 02:32N 36°07' W 005°22'0 0.0
2015-Jul-11 01:32N 36°07' W 005°22'0 0.0
2015-Jul-11 00:29N 36°07' W 005°22'0 0.0
2015-Jul-10 23:32N 36°07' W 005°22'2 1.8
2015-Jul-10 22:31N 36°09' W 005°23'0 0.2
2015-Jul-10 20:26N 36°09' W 005°22'0 0.1
2015-Jul-10 19:14N 36°09' W 005°22'0 0.1
2015-Jul-10 18:32N 36°09' W 005°22'0 0.0
2015-Jul-10 17:32N 36°09' W 005°22'0 0.0
2015-Jul-10 16:32N 36°09' W 005°22'0 0.0
2015-Jul-10 15:32N 36°09' W 005°22'0 0.0
2015-Jul-10 14:32N 36°09' W 005°22'0 0.0
2015-Jul-10 13:32N 36°09' W 005°22'2 2.5
2015-Jul-10 12:33N 36°07' W 005°21'0 0.2
2015-Jul-10 11:33N 36°07' W 005°21'0 0.1
2015-Jul-10 10:33N 36°07' W 005°21'0 0.4
2015-Jul-10 09:33N 36°07' W 005°22'  
Track history (hours):
 
Tides and Currents Weather Stations Pressure Air Temp Water Temp Dewpoint Dewpoint Depression Visibility Wind Speed Wind Dir Waves Ship Positions

Aegean Princess

Last reported at 2015-Jul-19 14:33 UTC. Time now 2015-Jul-29 22:02 UTC.
Position N 36°08' W 005°18'.
Warning: this ship's position is 10 days out of date.

Length 100 m; draft 7.1 m.

Type: Ship. MMSI: 236111476.

Date/timePositionNaut miles runAvg speedWind from/ knotsBaromVisibWave heightAir tempDewpointWater temp
2015-Jul-19 14:33N 36°08' W 005°18'  
2015-Jul-14 08:12N 36°08' W 005°23'0 0.1
2015-Jul-14 07:21N 36°08' W 005°23'0 0.0
2015-Jul-14 05:24N 36°08' W 005°23'0 0.0
2015-Jul-14 04:18N 36°08' W 005°23'0 0.0
2015-Jul-14 03:18N 36°08' W 005°23'0 0.0
2015-Jul-14 02:33N 36°08' W 005°23'0 0.0
2015-Jul-13 21:12N 36°08' W 005°23'1 2.0
2015-Jul-13 20:33N 36°09' W 005°22'0 0.1
2015-Jul-13 18:21N 36°09' W 005°22'0 0.0
2015-Jul-13 17:33N 36°09' W 005°22'0 0.0
2015-Jul-13 16:30N 36°09' W 005°22'0 0.0
2015-Jul-13 15:33N 36°09' W 005°22'0 0.0
2015-Jul-13 14:33N 36°09' W 005°22'1 0.5
2015-Jul-13 13:33N 36°09' W 005°23'4 3.8
2015-Jul-13 12:33N 36°08' W 005°18'0 0.0
2015-Jul-13 09:28N 36°07' W 005°18'5 5.5
2015-Jul-13 08:33N 36°03' W 005°22'9 9.3
2015-Jul-13 07:33N 35°56' W 005°29'2 0.1
2015-Jul-12 18:26N 35°57' W 005°31'5 5.5
2015-Jul-12 17:33N 35°60' W 005°26'7 6.7
2015-Jul-12 16:34N 36°06' W 005°23'3 2.8
2015-Jul-12 15:23N 36°09' W 005°22'0 0.0
2015-Jul-12 14:23N 36°09' W 005°22'0 0.3
2015-Jul-12 13:33N 36°09' W 005°23'2 1.6
2015-Jul-12 12:33N 36°07' W 005°22'0 0.0
2015-Jul-12 11:33N 36°07' W 005°22'0 0.0
2015-Jul-12 10:33N 36°07' W 005°22'0 0.0
2015-Jul-12 09:24N 36°07' W 005°22'0 0.2
2015-Jul-12 08:33N 36°08' W 005°22'0 0.1
2015-Jul-12 07:33N 36°08' W 005°22'0 0.1
2015-Jul-12 06:33N 36°08' W 005°22'0 0.1
2015-Jul-12 05:33N 36°07' W 005°22'2 1.9
2015-Jul-12 04:32N 36°09' W 005°23'0 0.0
2015-Jul-11 22:25N 36°09' W 005°23'0 0.0
2015-Jul-11 20:31N 36°09' W 005°23'0 0.0
2015-Jul-11 19:31N 36°09' W 005°23'0 0.0
2015-Jul-11 18:31N 36°09' W 005°23'0 0.0
2015-Jul-11 17:31N 36°09' W 005°23'0 0.0
2015-Jul-11 16:31N 36°09' W 005°23'0 0.0
2015-Jul-11 15:31N 36°09' W 005°23'0 0.0
2015-Jul-11 14:31N 36°09' W 005°23'0 0.0
2015-Jul-11 13:31N 36°09' W 005°23'0 0.0
2015-Jul-11 12:31N 36°09' W 005°23'0 0.0
2015-Jul-11 11:31N 36°09' W 005°23'0 0.0
2015-Jul-11 10:31N 36°09' W 005°23'1 0.4
2015-Jul-11 07:29N 36°08' W 005°22'1 0.9
2015-Jul-11 06:32N 36°08' W 005°22'0 0.1
2015-Jul-11 05:26N 36°08' W 005°22'0 0.2
2015-Jul-11 04:32N 36°07' W 005°22'0 0.1
2015-Jul-11 03:26N 36°07' W 005°22'0 0.0
2015-Jul-11 02:32N 36°07' W 005°22'0 0.0
2015-Jul-11 01:32N 36°07' W 005°22'0 0.0
2015-Jul-11 00:29N 36°07' W 005°22'0 0.0
2015-Jul-10 23:32N 36°07' W 005°22'2 1.8
2015-Jul-10 22:31N 36°09' W 005°23'0 0.2
2015-Jul-10 20:26N 36°09' W 005°22'0 0.1
2015-Jul-10 19:14N 36°09' W 005°22'0 0.1
2015-Jul-10 18:32N 36°09' W 005°22'0 0.0
2015-Jul-10 17:32N 36°09' W 005°22'0 0.0
2015-Jul-10 16:32N 36°09' W 005°22'0 0.0
2015-Jul-10 15:32N 36°09' W 005°22'0 0.0
2015-Jul-10 14:32N 36°09' W 005°22'0 0.0
2015-Jul-10 13:32N 36°09' W 005°22'2 2.5
2015-Jul-10 12:33N 36°07' W 005°21'0 0.2
2015-Jul-10 11:33N 36°07' W 005°21'0 0.1
2015-Jul-10 10:33N 36°07' W 005°21'0 0.4
2015-Jul-10 09:33N 36°07' W 005°22'  

Dump ship's entire track history